ADDS METAR Data INFO
IDs: Format: Raw Decoded Include TAF

Data at: 0310 UTC 17 Jan 2018

KMMU 170245Z 00000KT 7SM OVC029 00/M03 A3038
KMMU 170145Z 00000KT 7SM SCT020 SCT024 M01/M03 A3039
KMMU 170045Z 04003KT 7SM BKN026 00/M03 A3040
KMMU 162345Z 00000KT 7SM OVC013 00/M03 A3042
KMMU 162245Z 00000KT 7SM OVC013 00/M04 A3041
KMMU 162145Z COR 02004KT 7SM HZ BKN014 OVC019 01/M04 A3041
KMMU 162045Z 03004KT 7SM HZ OVC016 01/M04 A3042
KMMU 161945Z 00000KT 10SM HZ SCT029 BKN070 01/M04 A3042
KMMU 161845Z 00000KT 7SM SCT029 OVC070 01/M04 A3043
KMMU 161745Z 00000KT 7NM SCT020 OVC030 M01/M04 A3045
KMMU 161645Z 00000KT 7NM SCT020 OVC030 M01/M05 A3048
KMMU 161545Z 00000KT 7NM OVC030 M02/M05 A3051
KMMU 161445Z 00000KT 7NM OVC030 M03/M06 A3051
KMMU 161345Z 00000KT 5NM -SN OVC030 M04/M07 A3051
KMMU 161330Z 02003KT 4SM -SN OVC030 M04/M07 A3051
KMMU 161245Z 02003KT 10SM OVC011 M04/M07 A3052
KMMU 161145Z 02003KT 10SM OVC013 M04/M07 A3051
KMMU 161135Z AUTO 00000KT 10SM OVC013 M04/M07 A3050 RMK AO2
KMMU 161115Z AUTO 00000KT 10SM OVC013 M04/M08 A3050 RMK AO2
KMMU 161055Z AUTO 00000KT 10SM OVC013 M04/M07 A3049 RMK AO2
KMMU 161035Z AUTO 00000KT 10SM OVC013 M04/M08 A3048 RMK AO2
KMMU 161015Z AUTO 04003KT 10SM OVC013 M05/M08 A3048 RMK AO2
KMMU 160955Z AUTO 00000KT 10SM OVC013 M04/M08 A3049 RMK AO2
KMMU 160935Z AUTO 00000KT 10SM OVC015 M04/M08 A3049 RMK AO2
KMMU 160915Z AUTO 00000KT 10SM OVC015 M05/M08 A3049 RMK AO2
KMMU 160855Z AUTO 00000KT 10SM OVC017 M04/M08 A3050 RMK AO2
KMMU 160835Z AUTO 00000KT 10SM OVC017 M05/M08 A3050 RMK AO2
KMMU 160815Z AUTO 00000KT 10SM OVC017 M05/M08 A3050 RMK AO2
KMMU 160755Z AUTO 00000KT 10SM OVC017 M05/M08 A3050 RMK AO2
KMMU 160735Z AUTO 00000KT 10SM OVC017 M05/M08 A3050 RMK AO2
KMMU 160715Z AUTO 00000KT 10SM OVC017 M05/M08 A3049 RMK AO2
KMMU 160655Z AUTO 00000KT 10SM OVC017 M05/M08 A3049 RMK AO2
KMMU 160635Z AUTO 00000KT 10SM OVC017 M05/M08 A3048 RMK AO2
KMMU 160615Z AUTO 00000KT 10SM OVC017 M05/M08 A3048 RMK AO2
KMMU 160555Z AUTO 00000KT 10SM OVC017 M05/M08 A3049 RMK AO2
KMMU 160535Z AUTO 00000KT 10SM OVC017 M05/M08 A3049 RMK AO2
KMMU 160515Z AUTO 00000KT 10SM OVC017 M05/M07 A3049 RMK AO2
KMMU 160455Z AUTO 00000KT 10SM OVC017 M05/M07 A3050 RMK AO2
KMMU 160435Z AUTO 00000KT 10SM OVC017 M05/M07 A3050 RMK AO2
KMMU 160415Z AUTO 00000KT 10SM OVC019 M06/M07 A3050 RMK AO2
KMMU 160355Z AUTO 00000KT 10SM BKN019 OVC048 M07/M08 A3051 RMK AO2
KMMU 160335Z AUTO 00000KT 10SM SCT019 BKN048 M07/M09 A3050 RMK AO2
KMMU 160315Z AUTO 00000KT 10SM SCT048 M06/M08 A3051 RMK AO2
KMMU 160245Z 03003KT 10SM SKC M06/M08 A3052
KMMU 160145Z 04004KT 10SM SKC M05/M08 A3053
KMMU 160045Z 02003KT 10SM SKC M05/M08 A3054
KMMU 152345Z 02003KT 10SM SKC M05/M08 A3054
KMMU 152245Z 06005KT 10SM SKC M04/M08 A3053
KMMU 152145Z 08005KT 10SM SCT046 M03/M08 A3053
KMMU 152045Z 08007KT 10SM SCT046 M02/M08 A3052
KMMU 151945Z 05005KT 10SM SCT040 M01/M08 A3053
KMMU 151845Z 06009KT 10SM SCT030 M01/M08 A3055
KMMU 151745Z 09009G13KT 10SM SCT030 M01/M08 A3058
KMMU 151645Z 06005G12KT 10SM SCT250 M02/M10 A3061
KMMU 151545Z 07006G10KT 10SM SCT250 M03/M10 A3066